sensor_id;sensor_type;location;lat;lon;timestamp;temperature;humidity
44671;DHT22;48397;53.016;-2.260;2022-07-06T00:00:07;15.50;99.90
44671;DHT22;48397;53.016;-2.260;2022-07-06T00:02:35;15.50;99.90
44671;DHT22;48397;53.016;-2.260;2022-07-06T00:05:03;15.40;99.90
44671;DHT22;48397;53.016;-2.260;2022-07-06T00:07:31;13.10;99.90
44671;DHT22;48397;53.016;-2.260;2022-07-06T00:09:59;15.40;99.90
44671;DHT22;48397;53.016;-2.260;2022-07-06T00:12:27;16.70;99.90
44671;DHT22;48397;53.016;-2.260;2022-07-06T00:14:54;15.40;99.90
44671;DHT22;48397;53.016;-2.260;2022-07-06T00:17:22;15.30;99.90
44671;DHT22;48397;53.016;-2.260;2022-07-06T00:19:51;15.20;99.90
44671;DHT22;48397;53.016;-2.260;2022-07-06T00:22:18;15.10;99.90
44671;DHT22;48397;53.016;-2.260;2022-07-06T00:24:46;15.00;99.90
44671;DHT22;48397;53.016;-2.260;2022-07-06T00:27:14;14.90;99.90
44671;DHT22;48397;53.016;-2.260;2022-07-06T00:29:41;14.90;99.90
44671;DHT22;48397;53.016;-2.260;2022-07-06T00:32:11;14.90;99.90
44671;DHT22;48397;53.016;-2.260;2022-07-06T00:34:39;14.80;99.90
44671;DHT22;48397;53.016;-2.260;2022-07-06T00:37:07;14.70;99.90
44671;DHT22;48397;53.016;-2.260;2022-07-06T00:41:18;14.60;99.90
44671;DHT22;48397;53.016;-2.260;2022-07-06T00:43:53;14.50;99.90
44671;DHT22;48397;53.016;-2.260;2022-07-06T00:46:28;14.40;99.90
44671;DHT22;48397;53.016;-2.260;2022-07-06T00:48:58;14.50;99.90
44671;DHT22;48397;53.016;-2.260;2022-07-06T00:51:31;14.40;99.90
44671;DHT22;48397;53.016;-2.260;2022-07-06T00:54:02;14.40;99.90
44671;DHT22;48397;53.016;-2.260;2022-07-06T00:56:31;14.30;99.90
44671;DHT22;48397;53.016;-2.260;2022-07-06T00:59:00;14.30;99.90
44671;DHT22;48397;53.016;-2.260;2022-07-06T01:01:29;14.30;99.90
44671;DHT22;48397;53.016;-2.260;2022-07-06T01:03:57;14.30;99.90
44671;DHT22;48397;53.016;-2.260;2022-07-06T01:06:25;14.30;99.90
44671;DHT22;48397;53.016;-2.260;2022-07-06T01:08:53;14.30;99.90
44671;DHT22;48397;53.016;-2.260;2022-07-06T01:11:22;14.20;99.90
44671;DHT22;48397;53.016;-2.260;2022-07-06T01:13:50;14.30;99.90
44671;DHT22;48397;53.016;-2.260;2022-07-06T01:16:18;14.20;99.90
44671;DHT22;48397;53.016;-2.260;2022-07-06T01:18:47;14.20;99.90
44671;DHT22;48397;53.016;-2.260;2022-07-06T01:21:15;14.20;99.90
44671;DHT22;48397;53.016;-2.260;2022-07-06T01:23:46;14.20;99.90
44671;DHT22;48397;53.016;-2.260;2022-07-06T01:26:19;14.20;99.90
44671;DHT22;48397;53.016;-2.260;2022-07-06T01:28:49;14.30;99.90
44671;DHT22;48397;53.016;-2.260;2022-07-06T01:31:23;13.60;99.90
44671;DHT22;48397;53.016;-2.260;2022-07-06T01:33:53;14.30;99.90
44671;DHT22;48397;53.016;-2.260;2022-07-06T01:36:22;14.30;99.90
44671;DHT22;48397;53.016;-2.260;2022-07-06T01:38:55;14.40;99.90
44671;DHT22;48397;53.016;-2.260;2022-07-06T01:41:25;14.40;99.90
44671;DHT22;48397;53.016;-2.260;2022-07-06T01:43:54;14.40;99.90
44671;DHT22;48397;53.016;-2.260;2022-07-06T01:46:22;14.40;99.90
44671;DHT22;48397;53.016;-2.260;2022-07-06T01:48:49;14.40;99.90
44671;DHT22;48397;53.016;-2.260;2022-07-06T01:51:17;14.50;99.90
44671;DHT22;48397;53.016;-2.260;2022-07-06T01:53:46;14.50;99.90
44671;DHT22;48397;53.016;-2.260;2022-07-06T01:56:18;14.50;99.90
44671;DHT22;48397;53.016;-2.260;2022-07-06T01:58:52;14.60;99.90
44671;DHT22;48397;53.016;-2.260;2022-07-06T02:01:22;14.60;99.90
44671;DHT22;48397;53.016;-2.260;2022-07-06T02:03:50;14.60;99.90
44671;DHT22;48397;53.016;-2.260;2022-07-06T02:06:18;14.60;99.90
44671;DHT22;48397;53.016;-2.260;2022-07-06T02:08:48;14.60;99.90
44671;DHT22;48397;53.016;-2.260;2022-07-06T02:11:15;14.60;99.90
44671;DHT22;48397;53.016;-2.260;2022-07-06T02:13:44;14.70;99.90
44671;DHT22;48397;53.016;-2.260;2022-07-06T02:16:12;14.70;99.90
44671;DHT22;48397;53.016;-2.260;2022-07-06T02:18:41;14.70;99.90
44671;DHT22;48397;53.016;-2.260;2022-07-06T02:21:09;14.70;99.90
44671;DHT22;48397;53.016;-2.260;2022-07-06T02:23:37;14.70;99.90
44671;DHT22;48397;53.016;-2.260;2022-07-06T02:26:04;14.70;99.90
44671;DHT22;48397;53.016;-2.260;2022-07-06T02:31:03;14.70;99.90
44671;DHT22;48397;53.016;-2.260;2022-07-06T02:33:31;14.70;99.90
44671;DHT22;48397;53.016;-2.260;2022-07-06T02:35:59;14.80;99.90
44671;DHT22;48397;53.016;-2.260;2022-07-06T02:38:27;14.70;99.90
44671;DHT22;48397;53.016;-2.260;2022-07-06T02:40:56;14.80;99.90
44671;DHT22;48397;53.016;-2.260;2022-07-06T02:43:24;14.80;99.90
44671;DHT22;48397;53.016;-2.260;2022-07-06T02:45:52;14.70;99.90
44671;DHT22;48397;53.016;-2.260;2022-07-06T02:48:20;14.70;99.90
44671;DHT22;48397;53.016;-2.260;2022-07-06T02:50:51;14.80;99.90
44671;DHT22;48397;53.016;-2.260;2022-07-06T02:53:19;14.80;99.90
44671;DHT22;48397;53.016;-2.260;2022-07-06T02:55:51;14.80;99.90
44671;DHT22;48397;53.016;-2.260;2022-07-06T02:58:19;14.90;99.90
44671;DHT22;48397;53.016;-2.260;2022-07-06T03:00:47;14.90;99.90
44671;DHT22;48397;53.016;-2.260;2022-07-06T03:03:16;14.90;99.90
44671;DHT22;48397;53.016;-2.260;2022-07-06T03:05:44;14.90;99.90
44671;DHT22;48397;53.016;-2.260;2022-07-06T03:08:15;14.90;99.90
44671;DHT22;48397;53.016;-2.260;2022-07-06T03:10:43;14.90;99.90
44671;DHT22;48397;53.016;-2.260;2022-07-06T03:13:11;14.90;99.90
44671;DHT22;48397;53.016;-2.260;2022-07-06T03:15:40;14.90;99.90
44671;DHT22;48397;53.016;-2.260;2022-07-06T03:18:09;15.00;99.90
44671;DHT22;48397;53.016;-2.260;2022-07-06T03:20:38;15.00;99.90
44671;DHT22;48397;53.016;-2.260;2022-07-06T03:23:09;14.90;99.90
44671;DHT22;48397;53.016;-2.260;2022-07-06T03:25:37;15.00;99.90
44671;DHT22;48397;53.016;-2.260;2022-07-06T03:28:04;15.00;99.90
44671;DHT22;48397;53.016;-2.260;2022-07-06T03:30:32;14.90;99.90
44671;DHT22;48397;53.016;-2.260;2022-07-06T03:33:00;14.90;99.90
44671;DHT22;48397;53.016;-2.260;2022-07-06T03:35:29;15.00;99.90
44671;DHT22;48397;53.016;-2.260;2022-07-06T03:37:58;15.00;99.90
44671;DHT22;48397;53.016;-2.260;2022-07-06T03:40:29;15.00;99.90
44671;DHT22;48397;53.016;-2.260;2022-07-06T03:42:56;15.00;99.90
44671;DHT22;48397;53.016;-2.260;2022-07-06T03:45:27;15.00;99.90
44671;DHT22;48397;53.016;-2.260;2022-07-06T03:47:55;15.00;99.90
44671;DHT22;48397;53.016;-2.260;2022-07-06T03:50:24;15.00;99.90
44671;DHT22;48397;53.016;-2.260;2022-07-06T03:52:53;15.00;99.90
44671;DHT22;48397;53.016;-2.260;2022-07-06T03:55:22;15.00;99.90
44671;DHT22;48397;53.016;-2.260;2022-07-06T03:57:55;15.10;99.90
44671;DHT22;48397;53.016;-2.260;2022-07-06T04:00:24;15.10;99.90
44671;DHT22;48397;53.016;-2.260;2022-07-06T04:03:00;15.10;99.90
44671;DHT22;48397;53.016;-2.260;2022-07-06T04:05:31;15.10;99.90
44671;DHT22;48397;53.016;-2.260;2022-07-06T04:07:59;15.10;99.90
44671;DHT22;48397;53.016;-2.260;2022-07-06T04:10:35;15.10;99.90
44671;DHT22;48397;53.016;-2.260;2022-07-06T04:13:03;15.10;99.90
44671;DHT22;48397;53.016;-2.260;2022-07-06T04:15:32;15.10;99.90
44671;DHT22;48397;53.016;-2.260;2022-07-06T04:18:00;15.20;99.90
44671;DHT22;48397;53.016;-2.260;2022-07-06T04:20:32;15.10;99.90
44671;DHT22;48397;53.016;-2.260;2022-07-06T04:23:00;15.20;99.90
44671;DHT22;48397;53.016;-2.260;2022-07-06T04:25:29;15.20;99.90
44671;DHT22;48397;53.016;-2.260;2022-07-06T04:28:00;15.20;99.90
44671;DHT22;48397;53.016;-2.260;2022-07-06T04:30:29;15.20;99.90
44671;DHT22;48397;53.016;-2.260;2022-07-06T04:32:57;15.20;99.90
44671;DHT22;48397;53.016;-2.260;2022-07-06T04:35:27;15.30;99.90
44671;DHT22;48397;53.016;-2.260;2022-07-06T04:37:56;15.30;99.90
44671;DHT22;48397;53.016;-2.260;2022-07-06T04:40:25;15.30;99.90
44671;DHT22;48397;53.016;-2.260;2022-07-06T04:42:58;15.30;99.90
44671;DHT22;48397;53.016;-2.260;2022-07-06T04:45:28;15.30;99.90
44671;DHT22;48397;53.016;-2.260;2022-07-06T04:47:56;15.30;99.90
44671;DHT22;48397;53.016;-2.260;2022-07-06T04:50:24;15.30;99.90
44671;DHT22;48397;53.016;-2.260;2022-07-06T04:52:55;15.30;99.90
44671;DHT22;48397;53.016;-2.260;2022-07-06T04:55:23;15.30;99.90
44671;DHT22;48397;53.016;-2.260;2022-07-06T04:57:51;15.20;99.90
44671;DHT22;48397;53.016;-2.260;2022-07-06T05:00:20;15.30;99.90
44671;DHT22;48397;53.016;-2.260;2022-07-06T05:02:50;15.30;99.90
44671;DHT22;48397;53.016;-2.260;2022-07-06T05:05:19;15.30;99.90
44671;DHT22;48397;53.016;-2.260;2022-07-06T05:07:50;15.20;99.90
44671;DHT22;48397;53.016;-2.260;2022-07-06T05:10:17;15.20;99.90
44671;DHT22;48397;53.016;-2.260;2022-07-06T05:12:49;15.20;99.90
44671;DHT22;48397;53.016;-2.260;2022-07-06T05:15:17;15.30;99.90
44671;DHT22;48397;53.016;-2.260;2022-07-06T05:17:45;15.30;99.90
44671;DHT22;48397;53.016;-2.260;2022-07-06T05:20:14;15.30;99.90
44671;DHT22;48397;53.016;-2.260;2022-07-06T05:22:45;15.30;99.90
44671;DHT22;48397;53.016;-2.260;2022-07-06T05:25:16;15.30;99.90
44671;DHT22;48397;53.016;-2.260;2022-07-06T05:27:44;15.40;99.90
44671;DHT22;48397;53.016;-2.260;2022-07-06T05:30:13;15.40;99.90
44671;DHT22;48397;53.016;-2.260;2022-07-06T05:32:44;15.40;99.90
44671;DHT22;48397;53.016;-2.260;2022-07-06T05:35:11;15.40;99.90
44671;DHT22;48397;53.016;-2.260;2022-07-06T05:40:30;15.50;99.90
44671;DHT22;48397;53.016;-2.260;2022-07-06T05:42:58;18.50;99.90
44671;DHT22;48397;53.016;-2.260;2022-07-06T05:45:26;15.60;99.90
44671;DHT22;48397;53.016;-2.260;2022-07-06T05:47:56;15.60;99.90
44671;DHT22;48397;53.016;-2.260;2022-07-06T05:50:42;15.70;99.90
44671;DHT22;48397;53.016;-2.260;2022-07-06T05:53:11;15.70;99.90
44671;DHT22;48397;53.016;-2.260;2022-07-06T05:55:48;15.70;99.90
44671;DHT22;48397;53.016;-2.260;2022-07-06T06:00:46;15.70;99.90
44671;DHT22;48397;53.016;-2.260;2022-07-06T06:03:18;15.70;99.90
44671;DHT22;48397;53.016;-2.260;2022-07-06T06:05:48;15.70;99.90
44671;DHT22;48397;53.016;-2.260;2022-07-06T06:08:18;15.70;99.90
44671;DHT22;48397;53.016;-2.260;2022-07-06T06:10:46;15.70;99.90
44671;DHT22;48397;53.016;-2.260;2022-07-06T06:13:18;15.70;99.90
44671;DHT22;48397;53.016;-2.260;2022-07-06T06:15:46;15.70;99.90
44671;DHT22;48397;53.016;-2.260;2022-07-06T06:18:15;15.70;99.90
44671;DHT22;48397;53.016;-2.260;2022-07-06T06:20:46;15.70;99.90
44671;DHT22;48397;53.016;-2.260;2022-07-06T06:23:15;15.70;99.90
44671;DHT22;48397;53.016;-2.260;2022-07-06T06:25:42;15.70;99.90
44671;DHT22;48397;53.016;-2.260;2022-07-06T06:28:11;15.70;99.90
44671;DHT22;48397;53.016;-2.260;2022-07-06T06:30:39;15.70;99.90
44671;DHT22;48397;53.016;-2.260;2022-07-06T06:33:14;15.70;99.90
44671;DHT22;48397;53.016;-2.260;2022-07-06T06:35:50;15.70;99.90
44671;DHT22;48397;53.016;-2.260;2022-07-06T06:38:20;15.70;99.90
44671;DHT22;48397;53.016;-2.260;2022-07-06T06:40:48;15.70;99.90
44671;DHT22;48397;53.016;-2.260;2022-07-06T06:43:16;15.70;99.90
44671;DHT22;48397;53.016;-2.260;2022-07-06T06:46:05;15.50;99.90
44671;DHT22;48397;53.016;-2.260;2022-07-06T06:48:32;15.50;99.90
44671;DHT22;48397;53.016;-2.260;2022-07-06T06:51:00;15.60;99.90
44671;DHT22;48397;53.016;-2.260;2022-07-06T06:53:28;15.50;99.90
44671;DHT22;48397;53.016;-2.260;2022-07-06T06:56:00;15.50;99.90
44671;DHT22;48397;53.016;-2.260;2022-07-06T06:58:28;15.50;99.90
44671;DHT22;48397;53.016;-2.260;2022-07-06T07:01:16;15.50;99.90
44671;DHT22;48397;53.016;-2.260;2022-07-06T07:03:43;15.50;99.90
44671;DHT22;48397;53.016;-2.260;2022-07-06T07:06:11;15.60;99.90
44671;DHT22;48397;53.016;-2.260;2022-07-06T07:08:39;15.60;99.90
44671;DHT22;48397;53.016;-2.260;2022-07-06T07:11:07;15.50;99.90
44671;DHT22;48397;53.016;-2.260;2022-07-06T07:13:34;15.50;99.90
44671;DHT22;48397;53.016;-2.260;2022-07-06T07:16:03;15.50;99.90
44671;DHT22;48397;53.016;-2.260;2022-07-06T07:18:31;15.50;99.90
44671;DHT22;48397;53.016;-2.260;2022-07-06T07:21:00;15.50;99.90
44671;DHT22;48397;53.016;-2.260;2022-07-06T07:23:28;15.50;99.90
44671;DHT22;48397;53.016;-2.260;2022-07-06T07:25:56;15.60;99.90
44671;DHT22;48397;53.016;-2.260;2022-07-06T07:30:53;15.60;99.90
44671;DHT22;48397;53.016;-2.260;2022-07-06T07:33:21;15.70;99.90
44671;DHT22;48397;53.016;-2.260;2022-07-06T07:35:49;15.60;99.90
44671;DHT22;48397;53.016;-2.260;2022-07-06T07:38:17;15.60;99.90
44671;DHT22;48397;53.016;-2.260;2022-07-06T07:40:44;15.60;99.90
44671;DHT22;48397;53.016;-2.260;2022-07-06T07:43:12;15.50;99.90
44671;DHT22;48397;53.016;-2.260;2022-07-06T07:45:40;15.60;99.90
44671;DHT22;48397;53.016;-2.260;2022-07-06T07:48:07;15.60;99.90
44671;DHT22;48397;53.016;-2.260;2022-07-06T07:50:35;15.70;99.90
44671;DHT22;48397;53.016;-2.260;2022-07-06T07:53:03;15.70;99.90
44671;DHT22;48397;53.016;-2.260;2022-07-06T07:55:31;15.70;99.90
44671;DHT22;48397;53.016;-2.260;2022-07-06T07:58:08;15.70;99.90
44671;DHT22;48397;53.016;-2.260;2022-07-06T08:00:36;15.80;99.90
44671;DHT22;48397;53.016;-2.260;2022-07-06T08:03:04;15.90;99.90
44671;DHT22;48397;53.016;-2.260;2022-07-06T08:05:32;15.90;99.90
44671;DHT22;48397;53.016;-2.260;2022-07-06T08:08:00;15.80;99.90
44671;DHT22;48397;53.016;-2.260;2022-07-06T08:10:28;15.80;99.90
44671;DHT22;48397;53.016;-2.260;2022-07-06T08:12:56;15.80;99.90
44671;DHT22;48397;53.016;-2.260;2022-07-06T08:15:24;15.90;99.90
44671;DHT22;48397;53.016;-2.260;2022-07-06T08:17:52;15.90;99.90
44671;DHT22;48397;53.016;-2.260;2022-07-06T08:20:20;15.90;99.90
44671;DHT22;48397;53.016;-2.260;2022-07-06T08:22:48;13.90;99.90
44671;DHT22;48397;53.016;-2.260;2022-07-06T08:25:15;16.00;99.90
44671;DHT22;48397;53.016;-2.260;2022-07-06T08:27:44;16.00;99.90
44671;DHT22;48397;53.016;-2.260;2022-07-06T08:30:12;16.10;99.90
44671;DHT22;48397;53.016;-2.260;2022-07-06T08:32:41;16.30;99.90
44671;DHT22;48397;53.016;-2.260;2022-07-06T08:35:29;16.40;99.90
44671;DHT22;48397;53.016;-2.260;2022-07-06T08:37:58;16.60;99.90
44671;DHT22;48397;53.016;-2.260;2022-07-06T08:40:27;16.50;99.90
44671;DHT22;48397;53.016;-2.260;2022-07-06T08:42:59;16.30;99.90
44671;DHT22;48397;53.016;-2.260;2022-07-06T08:45:27;16.10;99.90
44671;DHT22;48397;53.016;-2.260;2022-07-06T08:47:59;17.60;99.90
44671;DHT22;48397;53.016;-2.260;2022-07-06T08:50:31;16.10;99.90
44671;DHT22;48397;53.016;-2.260;2022-07-06T08:52:59;16.10;99.90
44671;DHT22;48397;53.016;-2.260;2022-07-06T08:55:27;16.20;99.90
44671;DHT22;48397;53.016;-2.260;2022-07-06T08:57:57;16.40;99.90
44671;DHT22;48397;53.016;-2.260;2022-07-06T09:00:25;16.60;99.90
44671;DHT22;48397;53.016;-2.260;2022-07-06T09:02:53;16.80;99.90
44671;DHT22;48397;53.016;-2.260;2022-07-06T09:05:24;16.80;99.90
44671;DHT22;48397;53.016;-2.260;2022-07-06T09:07:52;16.90;99.90
44671;DHT22;48397;53.016;-2.260;2022-07-06T09:10:26;17.00;99.90
44671;DHT22;48397;53.016;-2.260;2022-07-06T09:13:01;17.00;99.90
44671;DHT22;48397;53.016;-2.260;2022-07-06T09:15:29;16.90;99.90
44671;DHT22;48397;53.016;-2.260;2022-07-06T09:17:57;16.70;99.90
44671;DHT22;48397;53.016;-2.260;2022-07-06T09:20:25;16.70;99.90
44671;DHT22;48397;53.016;-2.260;2022-07-06T09:23:00;16.80;99.90
44671;DHT22;48397;53.016;-2.260;2022-07-06T09:25:28;17.10;99.90
44671;DHT22;48397;53.016;-2.260;2022-07-06T09:27:57;17.20;99.90
44671;DHT22;48397;53.016;-2.260;2022-07-06T09:30:26;17.20;99.90
44671;DHT22;48397;53.016;-2.260;2022-07-06T09:32:56;17.50;99.90
44671;DHT22;48397;53.016;-2.260;2022-07-06T09:35:31;17.40;99.90
44671;DHT22;48397;53.016;-2.260;2022-07-06T09:38:14;17.40;99.90
44671;DHT22;48397;53.016;-2.260;2022-07-06T09:40:43;17.30;99.90
44671;DHT22;48397;53.016;-2.260;2022-07-06T09:43:16;17.30;99.90
44671;DHT22;48397;53.016;-2.260;2022-07-06T09:45:49;17.30;99.90
44671;DHT22;48397;53.016;-2.260;2022-07-06T09:48:20;17.50;99.90
44671;DHT22;48397;53.016;-2.260;2022-07-06T09:51:00;17.80;99.90
44671;DHT22;48397;53.016;-2.260;2022-07-06T09:53:35;17.80;99.90
44671;DHT22;48397;53.016;-2.260;2022-07-06T09:56:03;17.80;99.90
44671;DHT22;48397;53.016;-2.260;2022-07-06T09:58:38;17.80;99.90
44671;DHT22;48397;53.016;-2.260;2022-07-06T10:01:26;17.80;99.90
44671;DHT22;48397;53.016;-2.260;2022-07-06T10:03:55;17.70;99.90
44671;DHT22;48397;53.016;-2.260;2022-07-06T10:06:25;17.70;99.90
44671;DHT22;48397;53.016;-2.260;2022-07-06T10:08:57;17.70;99.90
44671;DHT22;48397;53.016;-2.260;2022-07-06T10:11:28;17.70;99.90
44671;DHT22;48397;53.016;-2.260;2022-07-06T10:13:57;17.70;99.90
44671;DHT22;48397;53.016;-2.260;2022-07-06T10:16:25;17.50;99.90
44671;DHT22;48397;53.016;-2.260;2022-07-06T10:18:53;17.50;99.90
44671;DHT22;48397;53.016;-2.260;2022-07-06T10:21:22;17.50;99.90
44671;DHT22;48397;53.016;-2.260;2022-07-06T10:23:51;17.60;99.90
44671;DHT22;48397;53.016;-2.260;2022-07-06T10:26:21;17.70;99.90
44671;DHT22;48397;53.016;-2.260;2022-07-06T10:28:52;17.90;99.90
44671;DHT22;48397;53.016;-2.260;2022-07-06T10:31:20;17.80;99.90
44671;DHT22;48397;53.016;-2.260;2022-07-06T10:33:48;18.10;99.90
44671;DHT22;48397;53.016;-2.260;2022-07-06T10:36:16;18.10;99.90
44671;DHT22;48397;53.016;-2.260;2022-07-06T10:38:46;18.10;99.90
44671;DHT22;48397;53.016;-2.260;2022-07-06T10:41:16;18.30;99.90
44671;DHT22;48397;53.016;-2.260;2022-07-06T10:43:45;18.70;99.90
44671;DHT22;48397;53.016;-2.260;2022-07-06T10:46:15;18.90;99.90
44671;DHT22;48397;53.016;-2.260;2022-07-06T10:48:45;18.90;99.90
44671;DHT22;48397;53.016;-2.260;2022-07-06T10:51:26;19.00;99.90
44671;DHT22;48397;53.016;-2.260;2022-07-06T10:53:59;19.00;99.90
44671;DHT22;48397;53.016;-2.260;2022-07-06T10:56:38;19.00;99.90
44671;DHT22;48397;53.016;-2.260;2022-07-06T10:59:13;18.90;99.90
44671;DHT22;48397;53.016;-2.260;2022-07-06T11:04:38;18.70;99.90
44671;DHT22;48397;53.016;-2.260;2022-07-06T11:07:10;18.70;99.90
44671;DHT22;48397;53.016;-2.260;2022-07-06T11:09:39;18.80;99.90
44671;DHT22;48397;53.016;-2.260;2022-07-06T11:12:19;20.70;99.90
44671;DHT22;48397;53.016;-2.260;2022-07-06T11:14:48;19.30;99.90
44671;DHT22;48397;53.016;-2.260;2022-07-06T11:17:17;19.50;99.90
44671;DHT22;48397;53.016;-2.260;2022-07-06T11:19:49;19.50;99.90
44671;DHT22;48397;53.016;-2.260;2022-07-06T11:22:18;19.60;99.90
44671;DHT22;48397;53.016;-2.260;2022-07-06T11:24:46;19.70;99.90
44671;DHT22;48397;53.016;-2.260;2022-07-06T11:27:15;19.70;99.90
44671;DHT22;48397;53.016;-2.260;2022-07-06T11:29:42;19.80;99.90
44671;DHT22;48397;53.016;-2.260;2022-07-06T11:32:12;19.90;99.90
44671;DHT22;48397;53.016;-2.260;2022-07-06T11:34:43;19.80;99.90
44671;DHT22;48397;53.016;-2.260;2022-07-06T11:37:15;19.80;99.90
44671;DHT22;48397;53.016;-2.260;2022-07-06T11:39:46;19.70;99.90
44671;DHT22;48397;53.016;-2.260;2022-07-06T11:42:16;19.60;99.90
44671;DHT22;48397;53.016;-2.260;2022-07-06T11:44:47;19.60;99.90
44671;DHT22;48397;53.016;-2.260;2022-07-06T11:47:14;19.60;99.90
44671;DHT22;48397;53.016;-2.260;2022-07-06T11:49:51;19.60;99.90
44671;DHT22;48397;53.016;-2.260;2022-07-06T11:52:19;19.60;99.90
44671;DHT22;48397;53.016;-2.260;2022-07-06T11:54:47;20.00;99.90
44671;DHT22;48397;53.016;-2.260;2022-07-06T11:57:14;20.00;99.90
44671;DHT22;48397;53.016;-2.260;2022-07-06T11:59:42;20.10;99.90
44671;DHT22;48397;53.016;-2.260;2022-07-06T12:02:16;19.70;99.90
44671;DHT22;48397;53.016;-2.260;2022-07-06T12:04:45;19.70;99.90
44671;DHT22;48397;53.016;-2.260;2022-07-06T12:07:16;19.60;99.90
44671;DHT22;48397;53.016;-2.260;2022-07-06T12:09:45;19.60;99.90
44671;DHT22;48397;53.016;-2.260;2022-07-06T12:12:14;19.60;99.90
44671;DHT22;48397;53.016;-2.260;2022-07-06T12:14:44;19.60;99.90
44671;DHT22;48397;53.016;-2.260;2022-07-06T12:17:13;19.60;99.90
44671;DHT22;48397;53.016;-2.260;2022-07-06T12:19:42;19.70;99.90
44671;DHT22;48397;53.016;-2.260;2022-07-06T12:22:10;21.10;99.90
44671;DHT22;48397;53.016;-2.260;2022-07-06T12:24:42;19.60;99.90
44671;DHT22;48397;53.016;-2.260;2022-07-06T12:27:17;19.50;99.90
44671;DHT22;48397;53.016;-2.260;2022-07-06T12:29:47;19.20;99.90
44671;DHT22;48397;53.016;-2.260;2022-07-06T12:32:19;19.10;99.90
44671;DHT22;48397;53.016;-2.260;2022-07-06T12:35:02;19.10;99.90
44671;DHT22;48397;53.016;-2.260;2022-07-06T12:37:30;19.00;99.90
44671;DHT22;48397;53.016;-2.260;2022-07-06T12:39:58;19.00;99.90
44671;DHT22;48397;53.016;-2.260;2022-07-06T12:42:26;19.00;99.90
44671;DHT22;48397;53.016;-2.260;2022-07-06T12:44:55;19.00;99.90
44671;DHT22;48397;53.016;-2.260;2022-07-06T12:47:24;19.00;99.90
44671;DHT22;48397;53.016;-2.260;2022-07-06T12:50:05;18.90;99.90
44671;DHT22;48397;53.016;-2.260;2022-07-06T12:52:34;19.00;99.90
44671;DHT22;48397;53.016;-2.260;2022-07-06T12:55:03;19.00;99.90
44671;DHT22;48397;53.016;-2.260;2022-07-06T12:57:46;19.20;99.90
44671;DHT22;48397;53.016;-2.260;2022-07-06T13:00:15;19.50;99.90
44671;DHT22;48397;53.016;-2.260;2022-07-06T13:02:46;19.50;99.90
44671;DHT22;48397;53.016;-2.260;2022-07-06T13:05:33;19.60;99.90
44671;DHT22;48397;53.016;-2.260;2022-07-06T13:08:03;19.70;99.90
44671;DHT22;48397;53.016;-2.260;2022-07-06T13:10:31;19.70;99.90
44671;DHT22;48397;53.016;-2.260;2022-07-06T13:13:01;19.80;99.90
44671;DHT22;48397;53.016;-2.260;2022-07-06T13:15:28;19.90;99.90
44671;DHT22;48397;53.016;-2.260;2022-07-06T13:17:56;20.20;99.90
44671;DHT22;48397;53.016;-2.260;2022-07-06T13:20:24;20.50;99.90
44671;DHT22;48397;53.016;-2.260;2022-07-06T13:22:51;20.60;99.90
44671;DHT22;48397;53.016;-2.260;2022-07-06T13:25:19;20.60;99.90
44671;DHT22;48397;53.016;-2.260;2022-07-06T13:27:47;20.30;99.90
44671;DHT22;48397;53.016;-2.260;2022-07-06T13:30:14;20.00;99.90
44671;DHT22;48397;53.016;-2.260;2022-07-06T13:32:42;20.00;99.90
44671;DHT22;48397;53.016;-2.260;2022-07-06T13:35:10;19.90;99.90
44671;DHT22;48397;53.016;-2.260;2022-07-06T13:37:38;19.90;99.90
44671;DHT22;48397;53.016;-2.260;2022-07-06T13:40:06;19.80;99.90
44671;DHT22;48397;53.016;-2.260;2022-07-06T13:42:34;19.70;99.90
44671;DHT22;48397;53.016;-2.260;2022-07-06T13:45:02;19.50;99.90
44671;DHT22;48397;53.016;-2.260;2022-07-06T13:47:29;19.50;99.90
44671;DHT22;48397;53.016;-2.260;2022-07-06T13:49:57;19.50;99.90
44671;DHT22;48397;53.016;-2.260;2022-07-06T13:52:25;19.30;99.90
44671;DHT22;48397;53.016;-2.260;2022-07-06T13:54:52;19.30;99.90
44671;DHT22;48397;53.016;-2.260;2022-07-06T13:57:28;19.20;99.90
44671;DHT22;48397;53.016;-2.260;2022-07-06T13:59:56;19.30;99.90
44671;DHT22;48397;53.016;-2.260;2022-07-06T14:02:23;19.20;99.90
44671;DHT22;48397;53.016;-2.260;2022-07-06T14:04:51;19.20;99.90
44671;DHT22;48397;53.016;-2.260;2022-07-06T14:07:19;19.30;99.90
44671;DHT22;48397;53.016;-2.260;2022-07-06T14:09:47;19.30;99.90
44671;DHT22;48397;53.016;-2.260;2022-07-06T14:12:20;19.30;99.90
44671;DHT22;48397;53.016;-2.260;2022-07-06T14:14:49;19.20;99.90
44671;DHT22;48397;53.016;-2.260;2022-07-06T14:17:18;19.10;99.90
44671;DHT22;48397;53.016;-2.260;2022-07-06T14:19:45;19.10;99.90
44671;DHT22;48397;53.016;-2.260;2022-07-06T14:22:13;19.00;99.90
44671;DHT22;48397;53.016;-2.260;2022-07-06T14:24:40;19.10;99.90
44671;DHT22;48397;53.016;-2.260;2022-07-06T14:27:08;18.90;99.90
44671;DHT22;48397;53.016;-2.260;2022-07-06T14:29:36;19.00;99.90
44671;DHT22;48397;53.016;-2.260;2022-07-06T14:34:31;18.90;99.90
44671;DHT22;48397;53.016;-2.260;2022-07-06T14:36:59;19.00;99.90
44671;DHT22;48397;53.016;-2.260;2022-07-06T14:39:27;18.90;99.90
44671;DHT22;48397;53.016;-2.260;2022-07-06T14:41:54;19.00;99.90
44671;DHT22;48397;53.016;-2.260;2022-07-06T14:44:22;19.40;99.90
44671;DHT22;48397;53.016;-2.260;2022-07-06T14:46:50;19.40;99.90
44671;DHT22;48397;53.016;-2.260;2022-07-06T14:49:18;19.50;99.90
44671;DHT22;48397;53.016;-2.260;2022-07-06T14:51:48;19.70;99.90
44671;DHT22;48397;53.016;-2.260;2022-07-06T14:54:16;20.00;99.90
44671;DHT22;48397;53.016;-2.260;2022-07-06T14:56:44;20.10;99.90
44671;DHT22;48397;53.016;-2.260;2022-07-06T14:59:12;20.00;99.90
44671;DHT22;48397;53.016;-2.260;2022-07-06T15:01:51;20.30;99.90
44671;DHT22;48397;53.016;-2.260;2022-07-06T15:04:19;20.50;99.90
44671;DHT22;48397;53.016;-2.260;2022-07-06T15:06:46;20.70;99.90
44671;DHT22;48397;53.016;-2.260;2022-07-06T15:09:22;20.80;99.90
44671;DHT22;48397;53.016;-2.260;2022-07-06T15:11:51;20.80;99.90
44671;DHT22;48397;53.016;-2.260;2022-07-06T15:14:19;20.70;99.90
44671;DHT22;48397;53.016;-2.260;2022-07-06T15:16:47;20.70;99.90
44671;DHT22;48397;53.016;-2.260;2022-07-06T15:19:16;20.70;99.90
44671;DHT22;48397;53.016;-2.260;2022-07-06T15:21:44;20.30;99.90
44671;DHT22;48397;53.016;-2.260;2022-07-06T15:24:11;19.80;99.90
44671;DHT22;48397;53.016;-2.260;2022-07-06T15:26:39;19.80;99.90
44671;DHT22;48397;53.016;-2.260;2022-07-06T15:29:08;19.60;99.90
44671;DHT22;48397;53.016;-2.260;2022-07-06T15:31:36;19.50;99.90
44671;DHT22;48397;53.016;-2.260;2022-07-06T15:34:04;19.50;99.90
44671;DHT22;48397;53.016;-2.260;2022-07-06T15:36:32;19.50;99.90
44671;DHT22;48397;53.016;-2.260;2022-07-06T15:38:59;19.40;99.90
44671;DHT22;48397;53.016;-2.260;2022-07-06T15:41:27;19.40;99.90
44671;DHT22;48397;53.016;-2.260;2022-07-06T15:43:55;19.50;99.90
44671;DHT22;48397;53.016;-2.260;2022-07-06T15:46:24;19.40;99.90